Terminal Aerodrome Forecast
Issued by NWS

Home | Current Version | Previous Version | Text Only | Print | Product List | Glossary On
Versions: 1 2 3 4 5 6 7 8 9 10 11 12 13 14 15 16 17 18
000
FTUS45 KRIW 252300
TAFWRL
TAF
KWRL 252331Z 2600/2624 35009KT 1SM -SN BR SCT008 OVC016
      TEMPO 2600/2604 3/4SM -SN BKN008
     FM260600 36008KT 2SM -SN SCT010 OVC020
     FM261200 33005KT 6SM -SN SCT012 OVC024
     FM261800 VRB06KT P6SM SCT060 BKN130=

USA.gov is the U.S. government's official web portal to all federal, state and local government web resources and services.